Sadiqabad Weather



Sadiqabad's Current Weather

Temprature 20.79o clear sky

clear sky

Rain: 0 %

Min Temprature20.79o
Max Temprature20.79o
Humidity24
Wind Speed2.75 m/h
Sun Rise06:28:17
Sun Set17:38:01
Current Time: 28-Oct-2020 06:59:00
Lat/Lon: 28.31, 70.13




Sadiqabad's Geo Location



Sadiqabad's Weather Forecast

Time Overall Temp Min Temp Max Temp Humidity Wind Speed Rain
28-Oct-2020 (Wed)
08:00:00 clear sky 22.530 22.530 25.050 22 2.81 m/h 0 %
11:00:00 clear sky 30.470 30.470 33.320 15 3.55 m/h 0 %
14:00:00 clear sky 34.830 34.830 35.840 10 3.68 m/h 0 %
17:00:00 clear sky 33.020 33.020 33.120 11 3.11 m/h 0 %
20:00:00 clear sky 27.140 27.140 27.140 16 3.55 m/h 0 %
23:00:00 clear sky 24.890 24.890 24.890 19 4.3 m/h 0 %
29-Oct-2020 (Thu)
02:00:00 clear sky 24.160 24.160 24.160 20 5.03 m/h 0 %
05:00:00 clear sky 18.560 18.560 18.560 34 1.08 m/h 0 %
08:00:00 clear sky 24.390 24.390 24.390 27 0.9 m/h 0 %
11:00:00 clear sky 32.230 32.230 32.230 15 2.76 m/h 0 %
14:00:00 clear sky 35.580 35.580 35.580 10 3.87 m/h 0 %
17:00:00 clear sky 32.720 32.720 32.720 12 2.43 m/h 0 %
20:00:00 clear sky 23.670 23.670 23.670 20 1.16 m/h 0 %
23:00:00 clear sky 22.340 22.340 22.340 22 1.4 m/h 0 %
30-Oct-2020 (Fri)
02:00:00 clear sky 22.070 22.070 22.070 22 1.99 m/h 0 %
05:00:00 clear sky 19.240 19.240 19.240 26 2.18 m/h 0 %
08:00:00 clear sky 23.660 23.660 23.660 20 2.91 m/h 0 %
11:00:00 clear sky 32.220 32.220 32.220 12 2.23 m/h 0 %
14:00:00 clear sky 35.040 35.040 35.040 10 0.21 m/h 0 %
17:00:00 clear sky 31.770 31.770 31.770 12 1.24 m/h 0 %
20:00:00 clear sky 22.270 22.270 22.270 21 0.23 m/h 0 %
23:00:00 clear sky 21.120 21.120 21.120 23 0.28 m/h 0 %
31-Oct-2020 (Sat)
02:00:00 clear sky 21.420 21.420 21.420 22 0.74 m/h 0 %
05:00:00 clear sky 18.270 18.270 18.270 27 1.58 m/h 0 %
08:00:00 clear sky 24.980 24.980 24.980 18 1.62 m/h 0 %
11:00:00 clear sky 33.280 33.280 33.280 11 1.19 m/h 0 %
14:00:00 clear sky 35.290 35.290 35.290 9 1.25 m/h 0 %
17:00:00 clear sky 31.650 31.650 31.650 12 1.01 m/h 0 %
20:00:00 clear sky 22.410 22.410 22.410 20 0.81 m/h 0 %
23:00:00 clear sky 21.160 21.160 21.160 22 1.44 m/h 0 %
01-Nov-2020 (Sun)
02:00:00 clear sky 22.100 22.100 22.100 21 2.34 m/h 0 %
05:00:00 clear sky 19.620 19.620 19.620 24 2.1 m/h 0 %
08:00:00 clear sky 26.160 26.160 26.160 16 2.58 m/h 0 %
11:00:00 clear sky 34.010 34.010 34.010 10 3.71 m/h 0 %
14:00:00 clear sky 35.750 35.750 35.750 8 4.68 m/h 0 %
17:00:00 clear sky 31.640 31.640 31.640 10 2.96 m/h 0 %
20:00:00 clear sky 24.990 24.990 24.990 15 3.23 m/h 0 %
23:00:00 clear sky 21.450 21.450 21.450 19 2.4 m/h 0 %
02-Nov-2020 (Mon)
02:00:00 clear sky 19.820 19.820 19.820 21 2.16 m/h 0 %
05:00:00 clear sky 18.370 18.370 18.370 23 1.95 m/h 0 %


Sadiqabad's Tourist Spots

Historical Places in Sadiqabad

Famous Cities (60)